createdAt,value
2023-05-10T00:00:52.444Z,0.52
2023-05-10T00:02:25.926Z,1.10
2023-05-10T00:03:59.111Z,1.45
2023-05-10T00:05:33.963Z,0.55
2023-05-10T00:08:40.195Z,0.93
2023-05-10T00:10:13.789Z,0.52
2023-05-10T00:11:46.980Z,0.30
2023-05-10T00:13:20.050Z,1.38
2023-05-10T00:14:52.270Z,1.75
2023-05-10T00:16:25.442Z,0.60
2023-05-10T00:17:58.786Z,0.63
2023-05-10T00:19:32.119Z,0.57
2023-05-10T00:21:07.425Z,0.45
2023-05-10T00:22:40.496Z,0.77
2023-05-10T00:24:13.932Z,1.17
2023-05-10T00:25:47.034Z,0.43
2023-05-10T00:27:19.224Z,1.50
2023-05-10T00:28:52.268Z,1.10
2023-05-10T00:30:25.219Z,0.38
2023-05-10T00:31:58.255Z,0.75
2023-05-10T00:33:31.481Z,2.38
2023-05-10T00:35:04.965Z,0.50
2023-05-10T00:36:39.424Z,1.05
2023-05-10T00:38:13.056Z,0.85
2023-05-10T00:39:46.142Z,1.00
2023-05-10T00:41:19.222Z,0.22
2023-05-10T00:42:53.224Z,0.38
2023-05-10T00:44:26.366Z,1.20
2023-05-10T00:45:59.958Z,2.72
2023-05-10T00:47:34.504Z,0.47
2023-05-10T00:49:08.848Z,1.33
2023-05-10T00:50:42.396Z,0.65
2023-05-10T00:52:17.585Z,0.30
2023-05-10T00:53:52.115Z,2.35
2023-05-10T00:55:26.561Z,0.65
2023-05-10T00:56:59.736Z,0.20
2023-05-10T00:58:32.145Z,0.70
2023-05-10T01:00:09.870Z,0.75
2023-05-10T01:01:43.594Z,0.70
2023-05-10T01:03:17.023Z,1.85
2023-05-10T01:04:52.803Z,1.65
2023-05-10T01:06:26.387Z,0.40
2023-05-10T01:08:00.941Z,0.60
2023-05-10T01:09:34.448Z,1.27
2023-05-10T01:11:07.853Z,0.30
2023-05-10T01:12:46.145Z,0.30
2023-05-10T01:14:21.575Z,0.82
2023-05-10T01:15:55.798Z,0.50
2023-05-10T01:17:29.577Z,1.27
2023-05-10T01:19:03.095Z,2.40
2023-05-10T01:20:45.106Z,0.60
2023-05-10T01:22:48.526Z,1.83
2023-05-10T01:24:52.733Z,0.50
2023-05-10T01:27:16.637Z,1.35
2023-05-10T01:29:26.714Z,2.92
2023-05-10T01:31:24.614Z,1.27
2023-05-10T01:33:07.173Z,1.20
2023-05-10T01:34:55.461Z,0.82
2023-05-10T01:36:37.002Z,0.73
2023-05-10T01:38:18.768Z,1.73
2023-05-10T01:40:03.401Z,1.65
2023-05-10T01:41:47.111Z,1.27
2023-05-10T01:43:28.530Z,4.25
2023-05-10T01:45:15.711Z,1.08
2023-05-10T01:46:58.549Z,1.27
2023-05-10T01:48:33.807Z,1.50
2023-05-10T01:50:17.515Z,0.93
2023-05-10T01:51:55.601Z,0.63
2023-05-10T01:53:30.671Z,0.98
2023-05-10T01:55:07.440Z,0.80
2023-05-10T01:56:43.997Z,0.65
2023-05-10T01:58:23.762Z,0.60
2023-05-10T01:59:59.523Z,1.25
2023-05-10T02:01:33.772Z,2.53
2023-05-10T02:03:11.314Z,2.63
2023-05-10T02:04:48.103Z,1.27
2023-05-10T02:06:24.006Z,1.00
2023-05-10T02:07:59.009Z,1.42
2023-05-10T02:09:35.332Z,1.10
2023-05-10T02:11:11.117Z,2.30
2023-05-10T02:12:47.994Z,1.92
2023-05-10T02:14:25.303Z,1.15
2023-05-10T02:16:00.355Z,1.42
2023-05-10T02:17:33.996Z,1.20
2023-05-10T02:19:09.409Z,1.30
2023-05-10T02:20:47.207Z,1.30
2023-05-10T02:22:24.202Z,1.13
2023-05-10T02:23:59.147Z,1.58
2023-05-10T02:25:34.853Z,1.05
2023-05-10T02:27:10.710Z,1.55
2023-05-10T02:28:44.477Z,1.10
2023-05-10T02:30:19.070Z,1.55
2023-05-10T02:31:56.087Z,3.50
2023-05-10T02:33:32.380Z,2.00
2023-05-10T02:35:06.990Z,2.13
2023-05-10T02:36:43.622Z,0.93
2023-05-10T02:38:18.140Z,1.45
2023-05-10T02:39:53.047Z,1.40
2023-05-10T02:41:27.875Z,2.90
2023-05-10T02:44:38.518Z,1.88
2023-05-10T02:46:11.907Z,1.52
2023-05-10T02:47:45.387Z,0.85
2023-05-10T02:49:17.908Z,1.30
2023-05-10T02:50:54.922Z,1.90
2023-05-10T02:52:38.750Z,1.15
2023-05-10T02:54:16.624Z,1.30
2023-05-10T02:55:57.619Z,1.20
2023-05-10T02:57:35.707Z,2.15
2023-05-10T02:59:08.801Z,1.25
2023-05-10T03:00:41.105Z,1.95
2023-05-10T03:02:16.297Z,2.88
2023-05-10T03:03:48.624Z,0.80
2023-05-10T03:05:22.498Z,3.80
2023-05-10T03:06:55.730Z,2.03
2023-05-10T03:08:31.129Z,2.13
2023-05-10T03:10:06.438Z,1.50
2023-05-10T03:11:54.738Z,1.15
2023-05-10T03:13:36.841Z,1.50
2023-05-10T03:15:19.838Z,1.80
2023-05-10T03:17:06.112Z,1.35
2023-05-10T03:18:45.927Z,2.13
2023-05-10T03:20:25.593Z,1.75
2023-05-10T03:22:10.581Z,1.27
2023-05-10T03:23:53.165Z,3.00
2023-05-10T03:25:26.714Z,2.20
2023-05-10T03:27:03.828Z,1.63
2023-05-10T03:28:38.547Z,2.67
2023-05-10T03:30:15.094Z,2.45
2023-05-10T03:31:47.803Z,3.05
2023-05-10T03:33:22.031Z,2.28
2023-05-10T03:34:55.236Z,2.00
2023-05-10T03:36:28.406Z,2.35
2023-05-10T03:38:01.597Z,2.88
2023-05-10T03:39:36.145Z,1.40
2023-05-10T03:41:10.305Z,1.77
2023-05-10T03:42:43.506Z,2.40
2023-05-10T03:44:16.639Z,2.13
2023-05-10T03:45:50.827Z,2.35
2023-05-10T03:47:23.984Z,2.95
2023-05-10T03:48:56.178Z,2.60
2023-05-10T03:50:29.576Z,2.22
2023-05-10T03:52:01.948Z,4.20
2023-05-10T03:53:35.109Z,4.32
2023-05-10T03:55:09.315Z,2.47
2023-05-10T03:56:42.608Z,2.45
2023-05-10T03:58:16.159Z,2.75
2023-05-10T03:59:48.909Z,4.30
2023-05-10T04:01:22.005Z,2.83
2023-05-10T04:02:55.177Z,3.80
2023-05-10T04:04:28.241Z,3.85
2023-05-10T04:06:02.556Z,3.58
2023-05-10T04:07:35.860Z,2.22
2023-05-10T04:09:09.569Z,1.80
2023-05-10T04:10:44.338Z,1.85
2023-05-10T04:12:17.421Z,2.30
2023-05-10T04:13:49.630Z,2.78
2023-05-10T04:15:23.060Z,3.55
2023-05-10T04:16:56.256Z,3.45
2023-05-10T04:18:29.500Z,3.05
2023-05-10T04:20:02.855Z,2.75
2023-05-10T04:21:36.556Z,2.75
2023-05-10T04:23:09.696Z,3.75
2023-05-10T04:24:42.796Z,3.45
2023-05-10T04:26:17.287Z,3.47
2023-05-10T04:27:50.389Z,3.40
2023-05-10T04:29:22.654Z,3.20
2023-05-10T04:31:02.062Z,4.95
2023-05-10T04:32:35.397Z,3.30
2023-05-10T04:34:08.539Z,2.70
2023-05-10T04:35:41.669Z,4.25
2023-05-10T04:37:14.711Z,3.50
2023-05-10T04:38:47.797Z,2.90
2023-05-10T04:40:20.969Z,2.42
2023-05-10T04:41:55.578Z,3.22
2023-05-10T04:43:28.673Z,2.85
2023-05-10T04:45:02.037Z,4.05
2023-05-10T04:46:34.295Z,2.67
2023-05-10T04:48:08.384Z,3.78
2023-05-10T04:49:41.444Z,4.97
2023-05-10T04:51:14.611Z,6.65
2023-05-10T04:52:48.123Z,3.67
2023-05-10T04:54:21.408Z,5.07
2023-05-10T04:55:54.498Z,3.50
2023-05-10T04:57:29.197Z,4.03
2023-05-10T04:59:02.590Z,4.78
2023-05-10T05:00:36.136Z,3.72
2023-05-10T05:02:09.337Z,3.25
2023-05-10T05:03:43.487Z,4.25
2023-05-10T05:05:16.948Z,4.93
2023-05-10T05:06:52.973Z,4.03
2023-05-10T05:08:26.934Z,3.45
2023-05-10T05:10:00.247Z,3.58
2023-05-10T05:11:33.360Z,8.07
2023-05-10T05:13:07.960Z,4.25
2023-05-10T05:16:13.745Z,3.92
2023-05-10T05:17:46.935Z,3.38
2023-05-10T05:19:20.131Z,3.38
2023-05-10T05:20:53.327Z,4.70
2023-05-10T05:22:28.644Z,5.10
2023-05-10T05:24:01.813Z,4.95
2023-05-10T05:25:34.938Z,6.28
2023-05-10T05:27:08.316Z,6.38
2023-05-10T05:28:42.978Z,6.07
2023-05-10T05:30:16.180Z,4.15
2023-05-10T05:31:49.517Z,4.50
2023-05-10T05:33:22.598Z,3.85
2023-05-10T05:35:12.355Z,4.20
2023-05-10T05:36:45.484Z,4.60
2023-05-10T05:38:18.829Z,6.05
2023-05-10T05:39:51.239Z,4.93
2023-05-10T05:41:25.188Z,4.00
2023-05-10T05:42:58.614Z,4.90
2023-05-10T05:44:33.134Z,6.22
2023-05-10T05:46:06.784Z,4.68
2023-05-10T05:47:39.944Z,7.07
2023-05-10T05:49:13.170Z,6.38
2023-05-10T05:50:46.495Z,7.88
2023-05-10T05:52:19.582Z,6.10
2023-05-10T05:53:52.679Z,9.43
2023-05-10T05:55:26.733Z,6.22
2023-05-10T05:57:01.501Z,6.90
2023-05-10T05:58:34.784Z,7.00
2023-05-10T06:00:11.192Z,7.28
2023-05-10T06:01:47.255Z,8.57
2023-05-10T06:03:20.900Z,7.40
2023-05-10T06:04:54.135Z,7.15
2023-05-10T06:06:27.809Z,8.20
2023-05-10T06:08:02.240Z,8.70
2023-05-10T06:09:35.446Z,8.57
2023-05-10T06:11:08.547Z,9.18
2023-05-10T06:12:42.003Z,9.25
2023-05-10T06:14:15.044Z,8.95
2023-05-10T06:15:49.470Z,8.60
2023-05-10T06:17:22.613Z,11.73
2023-05-10T06:18:56.259Z,11.18
2023-05-10T06:20:29.397Z,10.27
2023-05-10T06:22:02.587Z,10.45
2023-05-10T06:23:36.615Z,10.85
2023-05-10T06:25:11.276Z,9.07
2023-05-10T06:26:44.358Z,9.88
2023-05-10T06:28:17.543Z,9.48
2023-05-10T06:29:54.367Z,12.18
2023-05-10T06:31:34.020Z,11.85
2023-05-10T06:34:40.467Z,10.23
2023-05-10T06:36:14.253Z,11.20
2023-05-10T06:37:47.587Z,11.13
2023-05-10T06:39:20.671Z,15.27
2023-05-10T06:40:54.032Z,11.25
2023-05-10T06:42:28.128Z,12.20
2023-05-10T06:44:01.479Z,10.80
2023-05-10T06:45:34.607Z,14.75
2023-05-10T06:47:09.198Z,15.75
2023-05-10T06:48:42.430Z,14.25
2023-05-10T06:50:16.244Z,13.23
2023-05-10T06:51:49.411Z,13.77
2023-05-10T06:53:22.838Z,14.32
2023-05-10T06:54:55.890Z,12.43
2023-05-10T06:56:28.997Z,12.00
2023-05-10T06:58:02.097Z,13.02
2023-05-10T06:59:35.316Z,11.15
2023-05-10T07:01:08.768Z,14.27
2023-05-10T07:02:43.518Z,14.27
2023-05-10T07:04:16.916Z,13.35
2023-05-10T07:05:50.067Z,12.30
2023-05-10T07:07:23.400Z,12.00
2023-05-10T07:08:56.631Z,11.68
2023-05-10T07:10:30.686Z,11.52
2023-05-10T07:12:04.091Z,13.00
2023-05-10T07:13:39.913Z,14.38
2023-05-10T07:15:13.267Z,13.55
2023-05-10T07:16:46.463Z,11.93
2023-05-10T07:18:21.011Z,12.68
2023-05-10T07:19:54.148Z,13.70
2023-05-10T07:21:29.610Z,13.30
2023-05-10T07:23:03.055Z,13.82
2023-05-10T07:24:36.307Z,14.52
2023-05-10T07:26:10.384Z,13.55
2023-05-10T07:27:43.602Z,14.20
2023-05-10T07:29:16.753Z,13.13
2023-05-10T07:30:49.975Z,13.23
2023-05-10T07:32:23.470Z,11.68
2023-05-10T07:33:58.402Z,13.57
2023-05-10T07:35:31.848Z,13.85
2023-05-10T07:37:05.094Z,9.88
2023-05-10T07:38:40.813Z,11.95
2023-05-10T07:40:14.337Z,10.52
2023-05-10T07:41:47.360Z,11.45
2023-05-10T07:43:20.796Z,10.88
2023-05-10T07:44:54.002Z,8.90
2023-05-10T07:46:27.418Z,11.57
2023-05-10T07:48:00.928Z,9.93
2023-05-10T07:49:36.519Z,8.68
2023-05-10T07:51:10.380Z,10.07
2023-05-10T07:52:43.692Z,10.57
2023-05-10T07:54:16.774Z,8.07
2023-05-10T07:55:52.674Z,9.95
2023-05-10T07:57:25.813Z,7.40
2023-05-10T07:58:59.901Z,7.72
2023-05-10T08:00:33.642Z,10.00
2023-05-10T08:02:06.790Z,8.80
2023-05-10T08:03:39.993Z,9.43
2023-05-10T08:05:15.789Z,7.80
2023-05-10T08:06:49.328Z,7.80
2023-05-10T08:08:23.694Z,9.13
2023-05-10T08:09:57.688Z,9.75
2023-05-10T08:11:31.162Z,9.13
2023-05-10T08:13:04.461Z,8.30
2023-05-10T08:14:38.376Z,12.30
2023-05-10T08:16:11.642Z,9.07
2023-05-10T08:17:44.968Z,8.63
2023-05-10T08:19:19.919Z,7.93
2023-05-10T08:20:54.494Z,9.10
2023-05-10T08:22:27.568Z,8.52
2023-05-10T08:24:00.664Z,7.35
2023-05-10T08:25:34.225Z,7.57
2023-05-10T08:27:07.495Z,8.10
2023-05-10T08:28:40.853Z,7.38
2023-05-10T08:30:14.826Z,8.95
2023-05-10T08:31:47.931Z,9.85
2023-05-10T08:33:21.439Z,6.97
2023-05-10T08:34:54.643Z,8.93
2023-05-10T08:36:29.244Z,9.02
2023-05-10T08:38:02.410Z,7.45
2023-05-10T08:39:37.004Z,7.25
2023-05-10T08:41:11.539Z,7.97
2023-05-10T08:42:52.574Z,9.05
2023-05-10T08:44:26.350Z,7.95
2023-05-10T08:46:03.659Z,6.20
2023-05-10T08:47:39.122Z,6.85
2023-05-10T08:49:18.552Z,6.90
2023-05-10T08:50:55.794Z,7.20
2023-05-10T08:52:32.636Z,7.97
2023-05-10T08:54:06.929Z,6.55
2023-05-10T08:55:42.926Z,7.18
2023-05-10T08:57:16.123Z,6.43
2023-05-10T08:58:50.640Z,6.65
2023-05-10T09:00:25.090Z,8.30
2023-05-10T09:02:00.738Z,7.30
2023-05-10T09:03:34.263Z,7.20
2023-05-10T09:05:09.950Z,6.05
2023-05-10T09:06:43.590Z,7.68
2023-05-10T09:08:19.256Z,6.20
2023-05-10T09:09:53.532Z,5.72
2023-05-10T09:11:26.990Z,7.22
2023-05-10T09:13:00.832Z,9.73
2023-05-10T09:14:37.730Z,7.20
2023-05-10T09:16:21.174Z,6.28
2023-05-10T09:17:57.139Z,5.50
2023-05-10T09:19:30.735Z,5.40
2023-05-10T09:21:04.267Z,5.35
2023-05-10T09:22:38.589Z,4.65
2023-05-10T09:24:14.070Z,5.35
2023-05-10T09:25:47.177Z,3.92
2023-05-10T09:27:29.248Z,4.60
2023-05-10T09:29:03.669Z,5.18
2023-05-10T09:30:37.862Z,4.43
2023-05-10T09:32:11.369Z,4.93
2023-05-10T09:33:46.760Z,3.80
2023-05-10T09:35:22.898Z,5.60
2023-05-10T09:36:58.903Z,3.40
2023-05-10T09:38:48.749Z,5.20
2023-05-10T09:40:24.932Z,3.92
2023-05-10T09:41:58.557Z,4.07
2023-05-10T09:43:40.192Z,5.85
2023-05-10T09:45:13.465Z,6.47
2023-05-10T09:46:53.538Z,7.65
2023-05-10T09:48:27.494Z,4.75
2023-05-10T09:50:04.335Z,6.53
2023-05-10T09:51:38.187Z,5.13
2023-05-10T09:53:11.678Z,4.70
2023-05-10T09:54:54.902Z,5.40
2023-05-10T09:56:41.043Z,5.53
2023-05-10T09:58:15.700Z,7.00
2023-05-10T09:59:50.132Z,6.05
2023-05-10T10:01:23.419Z,8.82
2023-05-10T10:02:59.094Z,5.53
2023-05-10T10:04:32.649Z,5.65
2023-05-10T10:06:18.687Z,5.60
2023-05-10T10:08:01.626Z,6.47
2023-05-10T10:09:36.818Z,5.47
2023-05-10T10:11:10.304Z,6.38
2023-05-10T10:12:46.086Z,5.53
2023-05-10T10:14:20.870Z,6.13
2023-05-10T10:15:56.381Z,5.40
2023-05-10T10:17:30.452Z,6.22
2023-05-10T10:19:03.971Z,5.63
2023-05-10T10:20:40.002Z,6.20
2023-05-10T10:22:13.399Z,6.32
2023-05-10T10:23:46.505Z,5.65
2023-05-10T10:25:22.791Z,6.95
2023-05-10T10:27:05.191Z,6.57
2023-05-10T10:28:53.761Z,5.60
2023-05-10T10:30:33.486Z,8.27
2023-05-10T10:32:20.948Z,7.22
2023-05-10T10:34:03.835Z,9.18
2023-05-10T10:35:38.552Z,5.40
2023-05-10T10:39:05.066Z,4.90
2023-05-10T10:40:38.968Z,5.78
2023-05-10T10:42:12.172Z,6.30
2023-05-10T10:43:46.751Z,5.60
2023-05-10T10:45:20.141Z,6.60
2023-05-10T10:47:12.227Z,6.28
2023-05-10T10:50:23.767Z,6.82
2023-05-10T10:52:29.077Z,7.43
2023-05-10T10:54:11.601Z,6.63
2023-05-10T10:55:49.643Z,7.55
2023-05-10T10:57:23.538Z,5.38
2023-05-10T10:59:02.612Z,8.40
2023-05-10T11:00:39.337Z,6.95
2023-05-10T11:02:32.670Z,8.07
2023-05-10T11:04:22.019Z,6.72
2023-05-10T11:06:02.385Z,7.45
2023-05-10T11:07:35.919Z,8.30
2023-05-10T11:09:11.062Z,7.25
2023-05-10T11:11:05.308Z,9.00
2023-05-10T11:12:54.263Z,10.48
2023-05-10T11:14:29.025Z,11.32
2023-05-10T11:16:14.781Z,10.25
2023-05-10T11:17:52.867Z,10.68
2023-05-10T11:19:30.406Z,11.32
2023-05-10T11:21:06.063Z,11.73
2023-05-10T11:22:53.066Z,12.27
2023-05-10T11:24:30.383Z,13.13
2023-05-10T11:26:03.523Z,13.32
2023-05-10T11:27:39.541Z,13.20
2023-05-10T11:29:14.477Z,12.25
2023-05-10T11:30:49.500Z,12.52
2023-05-10T11:32:23.192Z,14.00
2023-05-10T11:33:58.395Z,13.32
2023-05-10T11:35:31.505Z,13.73
2023-05-10T11:37:04.823Z,14.38
2023-05-10T11:38:37.952Z,14.73
2023-05-10T11:40:12.624Z,15.43
2023-05-10T11:43:29.135Z,12.80
2023-05-10T11:45:03.215Z,12.43
2023-05-10T11:48:11.987Z,12.05
2023-05-10T11:49:46.422Z,13.15
2023-05-10T11:51:23.868Z,12.80
2023-05-10T11:52:59.484Z,12.50
2023-05-10T11:54:32.974Z,10.38
2023-05-10T11:56:08.020Z,12.73
2023-05-10T11:57:42.692Z,13.32
2023-05-10T11:59:16.854Z,11.20
2023-05-10T12:00:50.360Z,12.93
2023-05-10T12:02:25.129Z,9.40
2023-05-10T12:04:01.382Z,11.52
2023-05-10T12:05:35.312Z,10.95
2023-05-10T12:07:08.598Z,9.77
2023-05-10T12:08:48.040Z,9.63
2023-05-10T12:10:29.325Z,9.57
2023-05-10T12:12:04.371Z,9.52
2023-05-10T12:13:41.708Z,8.75
2023-05-10T12:15:20.673Z,9.48
2023-05-10T12:16:53.993Z,10.77
2023-05-10T12:18:28.640Z,10.40
2023-05-10T12:20:16.005Z,7.45
2023-05-10T12:21:49.764Z,11.23
2023-05-10T12:23:23.199Z,11.23
2023-05-10T12:24:55.431Z,8.90
2023-05-10T12:26:30.688Z,10.30
2023-05-10T12:28:07.862Z,8.90
2023-05-10T12:29:45.737Z,10.15
2023-05-10T12:31:19.438Z,8.68
2023-05-10T12:32:52.579Z,8.63
2023-05-10T12:34:28.817Z,8.93
2023-05-10T12:36:01.976Z,6.45
2023-05-10T12:37:37.018Z,8.40
2023-05-10T12:39:10.296Z,10.00
2023-05-10T12:40:43.356Z,10.23
2023-05-10T12:42:16.479Z,11.15
2023-05-10T12:43:49.519Z,10.27
2023-05-10T12:45:23.000Z,9.10
2023-05-10T12:46:56.089Z,8.15
2023-05-10T12:48:29.664Z,7.63
2023-05-10T12:50:05.380Z,9.20
2023-05-10T12:51:55.616Z,9.15
2023-05-10T12:53:28.904Z,8.40
2023-05-10T12:55:03.973Z,7.50
2023-05-10T12:56:38.229Z,7.78
2023-05-10T12:58:15.720Z,9.27
2023-05-10T12:59:51.489Z,8.48
2023-05-10T13:01:24.703Z,8.32
2023-05-10T13:02:57.949Z,7.18
2023-05-10T13:04:31.132Z,8.90
2023-05-10T13:06:06.512Z,8.52
2023-05-10T13:07:39.619Z,8.10
2023-05-10T13:09:12.724Z,8.95
2023-05-10T13:10:46.421Z,6.45
2023-05-10T13:12:19.723Z,9.93
2023-05-10T13:13:53.359Z,8.07
2023-05-10T13:15:27.543Z,7.40
2023-05-10T13:17:00.785Z,7.40
2023-05-10T13:18:33.970Z,8.65
2023-05-10T13:20:08.747Z,7.45
2023-05-10T13:23:16.122Z,7.22
2023-05-10T13:24:49.281Z,6.80
2023-05-10T13:26:22.366Z,7.18
2023-05-10T13:27:55.664Z,66.78
2023-05-10T13:29:28.890Z,9.45
2023-05-10T13:31:02.090Z,8.57
2023-05-10T13:32:36.548Z,7.63
2023-05-10T13:34:09.684Z,9.02
2023-05-10T13:35:42.813Z,8.10
2023-05-10T13:37:17.197Z,9.38
2023-05-10T13:38:50.509Z,9.15
2023-05-10T13:40:23.614Z,9.43
2023-05-10T13:41:57.335Z,8.30
2023-05-10T13:43:31.622Z,9.45
2023-05-10T13:45:05.506Z,10.40
2023-05-10T13:46:39.725Z,10.50
2023-05-10T13:48:13.092Z,8.05
2023-05-10T13:49:46.371Z,7.20
2023-05-10T13:51:19.717Z,10.48
2023-05-10T13:52:54.377Z,9.25
2023-05-10T13:56:04.106Z,11.30
2023-05-10T13:57:37.841Z,10.70
2023-05-10T13:59:11.027Z,8.35
2023-05-10T14:00:44.368Z,9.93
2023-05-10T14:02:17.456Z,12.10
2023-05-10T14:03:50.696Z,9.23
2023-05-10T14:05:26.178Z,9.90
2023-05-10T14:06:59.802Z,7.72
2023-05-10T14:08:34.196Z,9.73
2023-05-10T14:10:08.305Z,8.80
2023-05-10T14:11:44.076Z,10.88
2023-05-10T14:13:17.305Z,11.20
2023-05-10T14:14:50.424Z,8.02
2023-05-10T14:16:23.823Z,10.02
2023-05-10T14:17:57.204Z,10.52
2023-05-10T14:19:33.291Z,10.57
2023-05-10T14:21:06.453Z,9.35
2023-05-10T14:22:39.654Z,9.90
2023-05-10T14:24:14.255Z,10.05
2023-05-10T14:25:47.408Z,10.07
2023-05-10T14:27:20.535Z,9.90
2023-05-10T14:28:53.788Z,9.18
2023-05-10T14:30:26.946Z,10.68
2023-05-10T14:32:00.297Z,8.32
2023-05-10T14:33:33.367Z,10.07
2023-05-10T14:35:09.019Z,8.63
2023-05-10T14:36:43.895Z,8.43
2023-05-10T14:38:17.249Z,9.20
2023-05-10T14:39:52.003Z,10.00
2023-05-10T14:41:25.646Z,8.65
2023-05-10T14:42:58.784Z,8.85
2023-05-10T14:44:32.441Z,10.52
2023-05-10T14:46:05.679Z,8.80
2023-05-10T14:47:38.873Z,8.43
2023-05-10T14:49:11.989Z,8.85
2023-05-10T14:50:45.213Z,10.25
2023-05-10T14:52:18.373Z,7.18
2023-05-10T14:53:51.500Z,8.15
2023-05-10T14:55:25.128Z,8.05
2023-05-10T14:56:58.250Z,7.53
2023-05-10T14:58:33.854Z,8.23
2023-05-10T15:00:09.004Z,8.43
2023-05-10T15:01:42.995Z,7.00
2023-05-10T15:03:16.973Z,5.47
2023-05-10T15:04:50.633Z,6.75
2023-05-10T15:06:32.205Z,7.32
2023-05-10T15:08:05.787Z,7.65
2023-05-10T15:09:38.908Z,8.25
2023-05-10T15:11:13.350Z,5.43
2023-05-10T15:12:46.493Z,5.88
2023-05-10T15:14:19.506Z,6.22
2023-05-10T15:15:52.892Z,6.55
2023-05-10T15:17:26.088Z,6.97
2023-05-10T15:18:59.487Z,8.75
2023-05-10T15:20:32.718Z,6.38
2023-05-10T15:22:07.112Z,6.32
2023-05-10T15:23:40.200Z,7.18
2023-05-10T15:25:13.408Z,6.13
2023-05-10T15:26:47.844Z,6.40
2023-05-10T15:28:21.152Z,5.32
2023-05-10T15:29:54.326Z,5.63
2023-05-10T15:31:28.266Z,4.18
2023-05-10T15:33:01.358Z,5.43
2023-05-10T15:34:35.796Z,4.43
2023-05-10T15:36:10.255Z,4.95
2023-05-10T15:37:43.526Z,5.03
2023-05-10T15:39:16.549Z,5.07
2023-05-10T15:40:49.745Z,5.15
2023-05-10T15:42:24.126Z,6.43
2023-05-10T15:43:57.493Z,5.75
2023-05-10T15:45:30.864Z,5.82
2023-05-10T15:47:04.481Z,3.70
2023-05-10T15:48:41.083Z,5.05
2023-05-10T15:50:14.229Z,5.30
2023-05-10T15:51:47.833Z,5.82
2023-05-10T15:53:20.977Z,5.82
2023-05-10T15:54:54.143Z,4.57
2023-05-10T15:56:27.518Z,4.90
2023-05-10T15:58:02.107Z,4.28
2023-05-10T16:01:09.183Z,4.10
2023-05-10T16:02:43.546Z,4.55
2023-05-10T16:04:16.692Z,4.43
2023-05-10T16:05:50.002Z,3.70
2023-05-10T16:07:23.174Z,4.05
2023-05-10T16:08:56.339Z,3.97
2023-05-10T16:10:33.024Z,6.15
2023-05-10T16:12:06.189Z,4.18
2023-05-10T16:13:40.821Z,4.50
2023-05-10T16:16:47.586Z,4.78
2023-05-10T16:18:21.421Z,4.88
2023-05-10T16:19:54.806Z,4.50
2023-05-10T16:21:28.634Z,4.95
2023-05-10T16:23:06.205Z,4.88
2023-05-10T16:24:39.417Z,4.18
2023-05-10T16:26:12.572Z,4.57
2023-05-10T16:27:45.684Z,4.25
2023-05-10T16:29:20.173Z,4.50
2023-05-10T16:30:53.312Z,3.33
2023-05-10T16:32:26.660Z,3.90
2023-05-10T16:33:59.894Z,4.43
2023-05-10T16:35:33.025Z,5.95
2023-05-10T16:37:06.297Z,6.00
2023-05-10T16:38:39.659Z,4.35
2023-05-10T16:40:13.427Z,4.68
2023-05-10T16:41:46.546Z,4.88
2023-05-10T16:43:20.020Z,6.53
2023-05-10T16:44:55.428Z,4.32
2023-05-10T16:46:28.605Z,3.80
2023-05-10T16:48:01.862Z,4.35
2023-05-10T16:49:37.187Z,5.22
2023-05-10T16:51:10.510Z,4.95
2023-05-10T16:52:44.445Z,3.67
2023-05-10T16:54:18.464Z,4.13
2023-05-10T16:55:51.659Z,4.30
2023-05-10T16:57:24.948Z,4.30
2023-05-10T16:58:58.556Z,3.88
2023-05-10T17:00:33.081Z,4.50
2023-05-10T17:02:06.417Z,4.85
2023-05-10T17:03:39.861Z,5.60
2023-05-10T17:05:13.459Z,5.72
2023-05-10T17:06:46.678Z,3.90
2023-05-10T17:08:20.074Z,4.70
2023-05-10T17:09:53.242Z,4.38
2023-05-10T17:11:27.400Z,4.45
2023-05-10T17:13:00.440Z,5.88
2023-05-10T17:14:33.568Z,5.53
2023-05-10T17:16:08.235Z,6.40
2023-05-10T17:17:41.734Z,4.93
2023-05-10T17:19:14.912Z,4.22
2023-05-10T17:20:48.068Z,4.65
2023-05-10T17:22:21.197Z,11.23
2023-05-10T17:23:54.363Z,4.82
2023-05-10T17:25:26.572Z,4.35
2023-05-10T17:27:00.510Z,5.35
2023-05-10T17:28:33.760Z,4.53
2023-05-10T17:30:09.048Z,4.95
2023-05-10T17:31:43.670Z,6.07
2023-05-10T17:34:49.960Z,4.65
2023-05-10T17:36:23.306Z,4.63
2023-05-10T17:37:56.608Z,3.83
2023-05-10T17:39:29.932Z,4.47
2023-05-10T17:41:03.107Z,3.20
2023-05-10T17:42:36.255Z,5.28
2023-05-10T17:44:09.415Z,6.28
2023-05-10T17:45:44.001Z,5.15
2023-05-10T17:47:18.952Z,5.50
2023-05-10T17:48:52.139Z,3.95
2023-05-10T17:50:25.278Z,6.38
2023-05-10T17:51:58.516Z,5.28
2023-05-10T17:53:32.247Z,4.15
2023-05-10T17:55:06.310Z,4.60
2023-05-10T17:56:40.152Z,4.70
2023-05-10T17:58:13.763Z,4.80
2023-05-10T17:59:46.785Z,3.78
2023-05-10T18:01:19.992Z,3.65
2023-05-10T18:02:54.633Z,3.75
2023-05-10T18:06:01.179Z,6.13
2023-05-10T18:07:35.776Z,4.53
2023-05-10T18:09:09.502Z,4.80
2023-05-10T18:10:42.753Z,3.83
2023-05-10T18:12:15.917Z,4.45
2023-05-10T18:13:49.002Z,3.90
2023-05-10T18:15:22.041Z,4.22
2023-05-10T18:16:55.465Z,4.35
2023-05-10T18:18:30.107Z,4.55
2023-05-10T18:21:38.396Z,4.07
2023-05-10T18:23:11.559Z,4.75
2023-05-10T18:24:44.638Z,3.95
2023-05-10T18:26:18.072Z,4.80
2023-05-10T18:27:51.201Z,5.20
2023-05-10T18:29:24.394Z,3.25
2023-05-10T18:30:57.519Z,4.10
2023-05-10T18:32:31.235Z,5.85
2023-05-10T18:34:06.225Z,3.55
2023-05-10T18:35:40.896Z,4.85
2023-05-10T18:37:14.056Z,3.03
2023-05-10T18:38:47.242Z,5.05
2023-05-10T18:40:20.780Z,4.07
2023-05-10T18:41:53.902Z,4.30
2023-05-10T18:43:27.261Z,3.55
2023-05-10T18:45:00.729Z,4.13
2023-05-10T18:46:35.560Z,3.80
2023-05-10T18:48:09.055Z,3.42
2023-05-10T18:49:45.100Z,4.25
2023-05-10T18:51:18.732Z,3.45
2023-05-10T18:52:51.794Z,4.10
2023-05-10T18:54:25.032Z,4.03
2023-05-10T18:55:59.098Z,3.47
2023-05-10T18:57:32.375Z,4.55
2023-05-10T18:59:05.456Z,3.47
2023-05-10T19:00:38.640Z,4.78
2023-05-10T19:02:11.827Z,5.03
2023-05-10T19:03:45.056Z,5.35
2023-05-10T19:05:20.130Z,5.05
2023-05-10T19:06:53.762Z,4.53
2023-05-10T19:08:27.146Z,5.13
2023-05-10T19:10:00.578Z,4.13
2023-05-10T19:11:34.437Z,3.42
2023-05-10T19:13:07.799Z,3.47
2023-05-10T19:14:40.871Z,5.95
2023-05-10T19:16:16.816Z,3.35
2023-05-10T19:17:50.409Z,5.00
2023-05-10T19:19:23.987Z,4.47
2023-05-10T19:20:58.448Z,5.90
2023-05-10T19:22:47.127Z,4.07
2023-05-10T19:24:25.936Z,4.22
2023-05-10T19:25:59.950Z,3.17
2023-05-10T19:27:33.905Z,3.53
2023-05-10T19:29:07.114Z,3.60
2023-05-10T19:30:40.331Z,4.10
2023-05-10T19:32:13.702Z,4.03
2023-05-10T19:33:47.037Z,4.18
2023-05-10T19:35:20.513Z,4.80
2023-05-10T19:36:56.161Z,2.78
2023-05-10T19:38:29.545Z,3.63
2023-05-10T19:40:03.168Z,5.22
2023-05-10T19:41:36.505Z,3.53
2023-05-10T19:43:09.631Z,7.13
2023-05-10T19:44:42.838Z,3.22
2023-05-10T19:46:17.928Z,3.65
2023-05-10T19:47:53.473Z,4.07
2023-05-10T19:49:27.298Z,3.13
2023-05-10T19:51:02.990Z,4.30
2023-05-10T19:52:37.479Z,3.47
2023-05-10T19:54:10.819Z,3.42
2023-05-10T19:55:44.012Z,2.20
2023-05-10T19:57:17.200Z,2.65
2023-05-10T19:58:50.418Z,2.80
2023-05-10T20:00:23.974Z,3.50
2023-05-10T20:01:57.198Z,2.38
2023-05-10T20:03:30.500Z,3.03
2023-05-10T20:05:03.989Z,3.38
2023-05-10T20:06:37.168Z,3.90
2023-05-10T20:08:11.860Z,3.60
2023-05-10T20:11:33.590Z,3.17
2023-05-10T20:13:11.974Z,2.37
2023-05-10T20:14:45.093Z,2.72
2023-05-10T20:16:18.322Z,2.38
2023-05-10T20:17:52.948Z,2.80
2023-05-10T20:19:26.282Z,2.75
2023-05-10T20:21:01.406Z,2.28
2023-05-10T20:22:34.670Z,3.40
2023-05-10T20:24:10.229Z,5.20
2023-05-10T20:25:43.762Z,2.38
2023-05-10T20:27:17.001Z,3.85
2023-05-10T20:29:00.294Z,2.58
2023-05-10T20:30:33.468Z,2.67
2023-05-10T20:32:06.905Z,2.75
2023-05-10T20:33:40.003Z,2.83
2023-05-10T20:35:13.109Z,2.95
2023-05-10T20:36:46.218Z,2.83
2023-05-10T20:38:19.733Z,2.92
2023-05-10T20:39:54.327Z,2.00
2023-05-10T20:41:27.572Z,3.38
2023-05-10T20:43:00.764Z,3.13
2023-05-10T20:44:33.848Z,3.58
2023-05-10T20:46:07.027Z,2.47
2023-05-10T20:47:40.325Z,2.67
2023-05-10T20:49:14.479Z,4.40
2023-05-10T20:50:47.875Z,3.10
2023-05-10T20:52:22.279Z,2.72
2023-05-10T20:53:57.737Z,2.92
2023-05-10T20:55:32.649Z,5.20
2023-05-10T20:57:05.856Z,2.50
2023-05-10T20:58:38.916Z,2.60
2023-05-10T21:00:13.871Z,2.70
2023-05-10T21:01:47.149Z,4.30
2023-05-10T21:03:20.638Z,2.50
2023-05-10T21:04:55.622Z,5.95
2023-05-10T21:06:31.853Z,5.30
2023-05-10T21:08:05.061Z,4.22
2023-05-10T21:09:38.113Z,6.20
2023-05-10T21:11:12.564Z,3.70
2023-05-10T21:12:46.292Z,2.97
2023-05-10T21:14:19.357Z,3.72
2023-05-10T21:15:52.413Z,4.75
2023-05-10T21:17:25.511Z,2.25
2023-05-10T21:18:58.975Z,3.10
2023-05-10T21:20:31.658Z,2.80
2023-05-10T21:22:05.127Z,3.58
2023-05-10T21:23:38.360Z,3.25